George Allen — WDF9749 — position and weather

sailwx.info

Track history (hours):
 
Tides and Currents Weather Stations Pressure Air Temp Water Temp Dewpoint Dewpoint Depression Visibility Wind Speed Wind Dir Waves Ship Positions

George Allen

Owner: Blessey Enterprises, Inc., Harahan, LA. More information available from US FCC via Universal Licensing System and Coast Guard Vessel Documentation Center.

Last reported at 2016-Feb-12 02:31 UTC. Time now 2016-Feb-14 06:00 UTC.
Position N 27°49' W 097°29'.

Length 23 m.

Type: Towing. MMSI: 367508440.

Date/timePositionNaut miles runAvg speedWind from/ knotsBaromVisibWave heightAir tempDewpointWater temp
2016-Feb-12 02:31N 27°49' W 097°29'0 0.0
2016-Feb-12 01:32N 27°49' W 097°29'  
2016-Feb-06 10:34N 29°39' W 094°58'7 6.9
2016-Feb-06 09:33N 29°44' W 095°03'3 3.2
2016-Feb-06 08:33N 29°47' W 095°04'0 0.0
2016-Feb-06 05:32N 29°47' W 095°04'4 2.8
2016-Feb-06 04:13N 29°44' W 095°03'0 0.0
2016-Feb-06 03:33N 29°44' W 095°03'0 0.0
2016-Feb-06 02:33N 29°44' W 095°03'0 0.0
2016-Feb-06 01:33N 29°44' W 095°03'0 0.0
2016-Feb-06 00:33N 29°44' W 095°03'0 0.0
2016-Feb-05 23:33N 29°44' W 095°03'0 0.0
2016-Feb-05 22:34N 29°44' W 095°03'0 0.0
2016-Feb-05 21:33N 29°44' W 095°03'0 0.0
2016-Feb-05 20:34N 29°44' W 095°03'0 0.0
2016-Feb-05 19:33N 29°44' W 095°03'0 0.0
2016-Feb-05 18:34N 29°44' W 095°03'0 0.0
2016-Feb-05 17:33N 29°44' W 095°03'0 0.0
2016-Feb-05 16:34N 29°44' W 095°03'0 0.0
2016-Feb-05 15:34N 29°44' W 095°03'0 0.0
2016-Feb-05 14:33N 29°44' W 095°03'0 0.0
2016-Feb-05 13:34N 29°44' W 095°03'0 0.0
2016-Feb-05 12:33N 29°44' W 095°03'0 0.0
2016-Feb-05 11:33N 29°44' W 095°03'0 0.0
2016-Feb-05 10:34N 29°44' W 095°03'0 0.0
2016-Feb-05 09:34N 29°44' W 095°03'0 0.0
2016-Feb-05 08:33N 29°44' W 095°03'0 0.0
2016-Feb-05 07:34N 29°44' W 095°03'0 0.0
2016-Feb-05 06:34N 29°44' W 095°03'0 0.0
2016-Feb-05 05:34N 29°44' W 095°03'0 0.0
2016-Feb-05 04:34N 29°44' W 095°03'0 0.0
2016-Feb-05 03:34N 29°44' W 095°03'0 0.0
2016-Feb-05 02:33N 29°44' W 095°03'0 0.0
2016-Feb-05 01:33N 29°44' W 095°03'0 0.0
2016-Feb-05 00:34N 29°44' W 095°03'0 0.1
2016-Feb-04 23:33N 29°44' W 095°03'0 0.0
2016-Feb-04 22:34N 29°44' W 095°03'0 0.0
2016-Feb-04 21:33N 29°44' W 095°03'0 0.0
2016-Feb-04 20:33N 29°44' W 095°03'0 0.0
2016-Feb-04 19:33N 29°44' W 095°03'0 0.0
2016-Feb-04 18:33N 29°44' W 095°03'0 0.0
2016-Feb-04 17:33N 29°44' W 095°03'0 0.0
2016-Feb-04 16:33N 29°44' W 095°03'0 0.0
2016-Feb-04 15:34N 29°44' W 095°03'0 0.0
2016-Feb-04 14:33N 29°44' W 095°03'0 0.0
2016-Feb-04 13:34N 29°44' W 095°03'0 0.0
2016-Feb-04 12:33N 29°44' W 095°03'0 0.0
2016-Feb-04 11:34N 29°44' W 095°03'0 0.0
2016-Feb-04 10:34N 29°44' W 095°03'0 0.0
2016-Feb-04 09:33N 29°44' W 095°03'0 0.0
2016-Feb-04 08:33N 29°44' W 095°03'0 0.0
2016-Feb-04 07:34N 29°44' W 095°03'0 0.0
2016-Feb-04 06:33N 29°44' W 095°03'0 0.0
2016-Feb-04 05:33N 29°44' W 095°03'0 0.0
2016-Feb-04 04:33N 29°44' W 095°03'0 0.0
2016-Feb-04 03:34N 29°44' W 095°03'0 0.0
2016-Feb-04 02:33N 29°44' W 095°03'0 0.3
2016-Feb-04 01:34N 29°44' W 095°03'2 1.8
2016-Feb-04 00:33N 29°43' W 095°01'6 6.5
2016-Feb-03 23:33N 29°37' W 094°57'8 7.7
2016-Feb-03 22:33N 29°31' W 094°53'  
Track history (hours):
 
Tides and Currents Weather Stations Pressure Air Temp Water Temp Dewpoint Dewpoint Depression Visibility Wind Speed Wind Dir Waves Ship Positions

George Allen

Owner: Blessey Enterprises, Inc., Harahan, LA. More information available from US FCC via Universal Licensing System and Coast Guard Vessel Documentation Center.

Last reported at 2016-Feb-12 02:31 UTC. Time now 2016-Feb-14 06:00 UTC.
Position N 27°49' W 097°29'.

Length 23 m.

Type: Towing. MMSI: 367508440.

Date/timePositionNaut miles runAvg speedWind from/ knotsBaromVisibWave heightAir tempDewpointWater temp
2016-Feb-12 02:31N 27°49' W 097°29'0 0.0
2016-Feb-12 01:32N 27°49' W 097°29'  
2016-Feb-06 10:34N 29°39' W 094°58'7 6.9
2016-Feb-06 09:33N 29°44' W 095°03'3 3.2
2016-Feb-06 08:33N 29°47' W 095°04'0 0.0
2016-Feb-06 05:32N 29°47' W 095°04'4 2.8
2016-Feb-06 04:13N 29°44' W 095°03'0 0.0
2016-Feb-06 03:33N 29°44' W 095°03'0 0.0
2016-Feb-06 02:33N 29°44' W 095°03'0 0.0
2016-Feb-06 01:33N 29°44' W 095°03'0 0.0
2016-Feb-06 00:33N 29°44' W 095°03'0 0.0
2016-Feb-05 23:33N 29°44' W 095°03'0 0.0
2016-Feb-05 22:34N 29°44' W 095°03'0 0.0
2016-Feb-05 21:33N 29°44' W 095°03'0 0.0
2016-Feb-05 20:34N 29°44' W 095°03'0 0.0
2016-Feb-05 19:33N 29°44' W 095°03'0 0.0
2016-Feb-05 18:34N 29°44' W 095°03'0 0.0
2016-Feb-05 17:33N 29°44' W 095°03'0 0.0
2016-Feb-05 16:34N 29°44' W 095°03'0 0.0
2016-Feb-05 15:34N 29°44' W 095°03'0 0.0
2016-Feb-05 14:33N 29°44' W 095°03'0 0.0
2016-Feb-05 13:34N 29°44' W 095°03'0 0.0
2016-Feb-05 12:33N 29°44' W 095°03'0 0.0
2016-Feb-05 11:33N 29°44' W 095°03'0 0.0
2016-Feb-05 10:34N 29°44' W 095°03'0 0.0
2016-Feb-05 09:34N 29°44' W 095°03'0 0.0
2016-Feb-05 08:33N 29°44' W 095°03'0 0.0
2016-Feb-05 07:34N 29°44' W 095°03'0 0.0
2016-Feb-05 06:34N 29°44' W 095°03'0 0.0
2016-Feb-05 05:34N 29°44' W 095°03'0 0.0
2016-Feb-05 04:34N 29°44' W 095°03'0 0.0
2016-Feb-05 03:34N 29°44' W 095°03'0 0.0
2016-Feb-05 02:33N 29°44' W 095°03'0 0.0
2016-Feb-05 01:33N 29°44' W 095°03'0 0.0
2016-Feb-05 00:34N 29°44' W 095°03'0 0.1
2016-Feb-04 23:33N 29°44' W 095°03'0 0.0
2016-Feb-04 22:34N 29°44' W 095°03'0 0.0
2016-Feb-04 21:33N 29°44' W 095°03'0 0.0
2016-Feb-04 20:33N 29°44' W 095°03'0 0.0
2016-Feb-04 19:33N 29°44' W 095°03'0 0.0
2016-Feb-04 18:33N 29°44' W 095°03'0 0.0
2016-Feb-04 17:33N 29°44' W 095°03'0 0.0
2016-Feb-04 16:33N 29°44' W 095°03'0 0.0
2016-Feb-04 15:34N 29°44' W 095°03'0 0.0
2016-Feb-04 14:33N 29°44' W 095°03'0 0.0
2016-Feb-04 13:34N 29°44' W 095°03'0 0.0
2016-Feb-04 12:33N 29°44' W 095°03'0 0.0
2016-Feb-04 11:34N 29°44' W 095°03'0 0.0
2016-Feb-04 10:34N 29°44' W 095°03'0 0.0
2016-Feb-04 09:33N 29°44' W 095°03'0 0.0
2016-Feb-04 08:33N 29°44' W 095°03'0 0.0
2016-Feb-04 07:34N 29°44' W 095°03'0 0.0
2016-Feb-04 06:33N 29°44' W 095°03'0 0.0
2016-Feb-04 05:33N 29°44' W 095°03'0 0.0
2016-Feb-04 04:33N 29°44' W 095°03'0 0.0
2016-Feb-04 03:34N 29°44' W 095°03'0 0.0
2016-Feb-04 02:33N 29°44' W 095°03'0 0.3
2016-Feb-04 01:34N 29°44' W 095°03'2 1.8
2016-Feb-04 00:33N 29°43' W 095°01'6 6.5
2016-Feb-03 23:33N 29°37' W 094°57'8 7.7
2016-Feb-03 22:33N 29°31' W 094°53'  

Dump ship's entire track history